Time;durP1;ratioP1;P1;durP2;ratioP2;P2;SDS_P1;SDS_P2;PMS_P1;PMS_P2;Temp;Humidity;BMP_temperature;BMP_pressure;BME280_temperature;BME280_humidity;BME280_pressure;Samples;Min_cycle;Max_cycle;Signal;HPM_P1;HPM_P2
2024/03/29 00:01:03;;;;;;;13.32;5.60;;;;;;;6.27;100.00;98662.38;5078114;28;20052;-74
2024/03/29 00:03:29;;;;;;;12.40;6.10;;;;;;;6.27;100.00;98665.03;5043481;28;20047;-74
2024/03/29 00:05:54;;;;;;;14.10;6.20;;;;;;;6.34;100.00;98684.47;5043953;28;20076;-74
2024/03/29 00:08:20;;;;;;;15.27;6.18;;;;;;;6.35;100.00;98681.56;5059856;28;20044;-75
2024/03/29 00:10:49;;;;;;;14.75;6.53;;;;;;;6.21;100.00;98666.75;5076012;28;20056;-74
2024/03/29 00:13:14;;;;;;;13.15;6.18;;;;;;;6.13;100.00;98648.38;5059754;28;20040;-74
2024/03/29 00:15:59;;;;;;;13.80;6.43;;;;;;;6.37;100.00;98684.03;5042687;28;20101;-74
2024/03/29 00:18:24;;;;;;;11.32;6.10;;;;;;;6.29;100.00;98677.16;5059619;28;20047;-73
2024/03/29 00:20:50;;;;;;;14.57;6.57;;;;;;;6.35;100.00;98684.25;5043344;28;20033;-74
2024/03/29 00:23:15;;;;;;;10.48;6.20;;;;;;;6.21;100.00;98673.94;5041992;28;20038;-74
2024/03/29 00:25:41;;;;;;;13.75;6.45;;;;;;;6.36;100.00;98698.44;5058537;28;20119;-75
2024/03/29 00:28:06;;;;;;;17.35;6.63;;;;;;;6.16;100.00;98668.44;5058368;28;20060;-74
2024/03/29 00:30:32;;;;;;;11.05;6.13;;;;;;;6.33;100.00;98696.22;5042847;28;20495;-74
2024/03/29 00:32:57;;;;;;;10.90;6.35;;;;;;;6.31;100.00;98692.94;5043163;28;20178;-74
2024/03/29 00:35:25;;;;;;;15.63;6.68;;;;;;;6.28;100.00;98702.19;5059734;28;20509;-74
2024/03/29 00:37:50;;;;;;;15.27;7.10;;;;;;;6.35;100.00;98716.28;5075714;28;20101;-74
2024/03/29 00:40:16;;;;;;;14.07;6.85;;;;;;;6.35;100.00;98721.63;5075660;28;20094;-75
2024/03/29 00:42:42;;;;;;;15.45;8.50;;;;;;;6.30;100.00;98712.69;5077172;28;20032;-74
2024/03/29 00:45:08;;;;;;;17.70;8.57;;;;;;;6.21;100.00;98697.97;5057509;28;20118;-75
2024/03/29 00:47:33;;;;;;;16.80;8.68;;;;;;;6.37;100.00;98713.41;5041037;28;20115;-74
2024/03/29 00:49:59;;;;;;;17.63;9.43;;;;;;;6.37;100.00;98716.09;5042250;28;20062;-74
2024/03/29 00:52:24;;;;;;;20.23;9.70;;;;;;;6.39;100.00;98722.03;5078734;28;20085;-75
2024/03/29 00:54:51;;;;;;;17.88;9.35;;;;;;;5.60;100.00;98595.53;5064002;28;20036;-75
2024/03/29 00:57:16;;;;;;;17.80;9.88;;;;;;;6.26;100.00;98703.47;5063884;28;20115;-74
2024/03/29 00:59:43;;;;;;;18.90;11.15;;;;;;;6.40;100.00;98730.84;5079979;28;20487;-76
2024/03/29 01:02:09;;;;;;;17.13;10.73;;;;;;;6.41;100.00;98733.28;5080281;28;20036;-75
2024/03/29 01:04:34;;;;;;;23.13;11.40;;;;;;;6.24;100.00;98708.22;5080243;28;20063;-75
2024/03/29 01:06:59;;;;;;;22.52;11.88;;;;;;;6.39;100.00;98746.06;5062881;28;20044;-74
2024/03/29 01:09:26;;;;;;;20.98;11.77;;;;;;;6.41;100.00;98752.00;5064370;28;20071;-74
2024/03/29 01:11:53;;;;;;;17.77;10.23;;;;;;;6.17;100.00;98710.97;5064296;28;20028;-74
2024/03/29 01:14:19;;;;;;;18.45;10.93;;;;;;;6.43;100.00;98749.13;5082505;28;20039;-75
2024/03/29 01:16:44;;;;;;;21.17;11.07;;;;;;;6.39;100.00;98751.41;5081773;28;20395;-76
2024/03/29 01:19:10;;;;;;;20.63;10.98;;;;;;;6.28;100.00;98744.94;5063364;28;20044;-74
2024/03/29 01:21:35;;;;;;;21.90;11.13;;;;;;;6.38;100.00;98760.44;5064342;28;20078;-75
2024/03/29 01:24:01;;;;;;;20.35;11.65;;;;;;;6.39;100.00;98764.78;5082776;28;20041;-75
2024/03/29 01:26:26;;;;;;;18.73;11.23;;;;;;;6.21;100.00;98735.38;5064784;28;20568;-76
2024/03/29 01:28:52;;;;;;;21.45;11.98;;;;;;;6.39;100.00;98759.44;5047041;28;20109;-75
2024/03/29 01:31:17;;;;;;;19.73;11.82;;;;;;;6.42;100.00;98776.84;5030565;28;20056;-74
2024/03/29 01:33:42;;;;;;;22.65;12.13;;;;;;;6.41;100.00;98775.22;5064365;28;20040;-75
2024/03/29 01:36:08;;;;;;;19.75;11.68;;;;;;;6.42;100.00;98772.31;5047391;28;20491;-75
2024/03/29 01:38:34;;;;;;;21.55;12.63;;;;;;;6.10;100.00;98727.06;5082240;28;20048;-74
2024/03/29 01:41:00;;;;;;;22.67;13.15;;;;;;;6.43;100.00;98786.50;5062957;28;20036;-76
2024/03/29 01:43:29;;;;;;;25.85;13.43;;;;;;;6.42;100.00;98793.69;5062610;28;20124;-75
2024/03/29 01:45:55;;;;;;;29.25;15.13;;;;;;;6.23;100.00;98760.00;5062844;28;20045;-75
2024/03/29 01:48:24;;;;;;;23.20;14.13;;;;;;;6.39;100.00;98791.50;5062056;28;20127;-74
2024/03/29 01:50:52;;;;;;;26.73;14.13;;;;;;;6.34;100.00;98794.00;5063434;28;20036;-74
2024/03/29 01:53:18;;;;;;;25.10;14.68;;;;;;;6.42;100.00;98812.38;5063220;28;20025;-74
2024/03/29 01:55:44;;;;;;;26.13;15.73;;;;;;;6.44;100.00;98798.81;5063656;28;20041;-75
2024/03/29 01:58:11;;;;;;;26.17;16.02;;;;;;;6.45;100.00;98811.13;5079277;28;20104;-74
2024/03/29 02:00:39;;;;;;;25.92;15.52;;;;;;;6.42;100.00;98799.03;5061280;28;20036;-74
2024/03/29 02:03:09;;;;;;;27.92;15.55;;;;;;;6.45;100.00;98806.59;5080160;28;20036;-76
2024/03/29 02:05:36;;;;;;;27.42;15.77;;;;;;;6.45;100.00;98809.28;5047646;28;20037;-73
2024/03/29 02:08:04;;;;;;;27.80;15.45;;;;;;;6.43;100.00;98802.53;5064425;28;20037;-75
2024/03/29 02:10:29;;;;;;;25.17;14.40;;;;;;;6.44;100.00;98806.84;5080785;28;20084;-74
2024/03/29 02:12:55;;;;;;;27.20;15.70;;;;;;;6.13;100.00;98760.50;5081054;28;20078;-74
2024/03/29 02:15:22;;;;;;;25.80;15.55;;;;;;;6.33;100.00;98803.06;5063836;28;20566;-75
2024/03/29 02:17:48;;;;;;;30.17;15.52;;;;;;;6.29;100.00;98812.53;5031007;28;20036;-75
2024/03/29 02:20:13;;;;;;;28.50;15.25;;;;;;;6.25;100.00;98814.81;5061691;28;20075;-75
2024/03/29 02:22:50;;;;;;;27.13;14.90;;;;;;;6.20;100.00;98812.00;5079712;28;20037;-75
2024/03/29 02:25:16;;;;;;;27.13;14.55;;;;;;;6.14;100.00;98809.38;5079391;28;20029;-75
2024/03/29 02:27:42;;;;;;;34.33;15.05;;;;;;;5.86;100.00;98778.56;5044623;28;20041;-74
2024/03/29 02:30:07;;;;;;;28.48;14.27;;;;;;;6.00;100.00;98808.69;5062016;28;20029;-75
2024/03/29 02:32:33;;;;;;;23.88;14.15;;;;;;;5.81;100.00;98797.09;5062867;28;20028;-75
2024/03/29 02:34:58;;;;;;;25.42;13.23;;;;;;;6.01;100.00;98827.16;5030819;28;20036;-75
2024/03/29 02:37:25;;;;;;;24.10;12.95;;;;;;;5.87;100.00;98815.75;5081188;28;20505;-75
2024/03/29 02:40:10;;;;;;;26.77;12.23;;;;;;;5.99;100.00;98839.88;5081833;28;20041;-76
2024/03/29 02:42:36;;;;;;;;;;;;;;;5.94;100.00;98847.75;5042230;28;20048;-74
2024/03/29 02:45:02;;;;;;;21.92;10.82;;;;;;;5.85;100.00;98833.81;5041403;28;19920;-75
2024/03/29 02:47:28;;;;;;;23.98;10.90;;;;;;;5.85;100.00;98843.66;5059661;28;20059;-76
2024/03/29 02:49:53;;;;;;;25.85;10.43;;;;;;;5.88;100.00;98860.06;5043086;28;20547;-75
2024/03/29 02:52:19;;;;;;;22.70;9.73;;;;;;;5.53;100.00;98803.69;5026286;28;20380;-75
2024/03/29 02:54:45;;;;;;;21.85;8.68;;;;;;;5.86;100.00;98863.97;5059811;28;20029;-74
2024/03/29 02:57:10;;;;;;;31.23;9.20;;;;;;;5.76;100.00;98852.97;5025301;28;20064;-75
2024/03/29 02:59:35;;;;;;;20.80;7.30;;;;;;;5.82;100.00;98865.44;5020825;28;20049;-75
2024/03/29 03:02:01;;;;;;;19.83;6.45;;;;;;;5.29;100.00;98785.75;5059915;28;20455;-74
2024/03/29 03:04:26;;;;;;;19.20;6.10;;;;;;;5.53;100.00;98834.84;5042790;28;20036;-75
2024/03/29 03:06:51;;;;;;;17.52;5.97;;;;;;;5.54;100.00;98841.84;5042670;28;20033;-75
2024/03/29 03:12:01;;;;;;;21.13;5.10;;;;;;;5.55;100.00;98849.59;5059360;28;20035;-74
2024/03/29 03:14:26;;;;;;;16.88;4.63;;;;;;;5.55;100.00;98857.63;5058256;28;20821;-74
2024/03/29 03:16:53;;;;;;;23.33;4.38;;;;;;;5.28;100.00;98829.47;5048251;28;20048;-75
2024/03/29 03:19:19;;;;;;;20.08;4.78;;;;;;;5.50;100.00;98875.31;5066582;28;20132;-75
2024/03/29 03:21:45;;;;;;;23.67;4.05;;;;;;;5.50;100.00;98886.00;5045724;28;20026;-76
2024/03/29 03:24:12;;;;;;;21.90;3.35;;;;;;;5.51;100.00;98888.44;5045646;28;20092;-74
2024/03/29 03:26:38;;;;;;;19.73;3.35;;;;;;;5.46;100.00;98885.56;5037518;28;20415;-74
2024/03/29 03:29:04;;;;;;;21.02;3.50;;;;;;;5.27;100.00;98871.31;5038809;28;20116;-75
2024/03/29 03:31:29;;;;;;;19.35;3.40;;;;;;;5.42;100.00;98898.50;5038817;28;20038;-75
2024/03/29 03:33:54;;;;;;;21.35;2.97;;;;;;;5.41;100.00;98896.06;5005439;28;20101;-74
2024/03/29 03:36:20;;;;;;;21.98;3.15;;;;;;;5.40;100.00;98905.94;5022898;28;20111;-75
2024/03/29 03:38:45;;;;;;;23.77;3.10;;;;;;;5.37;100.00;98901.00;5004314;28;20503;-75
2024/03/29 03:41:10;;;;;;;25.52;3.22;;;;;;;5.08;100.00;98861.53;5038871;28;20407;-75
2024/03/29 03:43:37;;;;;;;18.30;2.90;;;;;;;5.35;100.00;98915.59;5038955;28;20072;-75
2024/03/29 03:46:03;;;;;;;16.92;3.03;;;;;;;5.33;100.00;98923.81;5021737;28;20484;-74
2024/03/29 03:48:31;;;;;;;20.50;2.75;;;;;;;5.28;100.00;98906.78;5037841;28;20045;-75
2024/03/29 03:50:57;;;;;;;24.17;3.88;;;;;;;5.29;100.00;98916.41;5053768;28;20040;-74
2024/03/29 03:53:22;;;;;;;30.77;3.25;;;;;;;5.28;100.00;98917.47;5039626;28;20480;-74
2024/03/29 03:55:48;;;;;;;30.00;3.70;;;;;;;5.27;100.00;98926.50;5038218;28;20041;-75
2024/03/29 03:58:15;;;;;;;23.05;3.20;;;;;;;5.09;100.00;98890.66;5041276;28;20106;-74
2024/03/29 04:00:41;;;;;;;28.85;3.45;;;;;;;5.04;100.00;98887.00;5020746;28;20120;-75
2024/03/29 04:03:06;;;;;;;22.63;3.88;;;;;;;5.17;100.00;98913.63;5020837;28;20065;-75
2024/03/29 04:05:32;;;;;;;21.30;3.78;;;;;;;5.24;100.00;98937.59;5038638;28;20056;-76
2024/03/29 04:07:58;;;;;;;27.83;4.15;;;;;;;5.26;100.00;98936.31;5037704;28;20460;-76
2024/03/29 04:10:23;;;;;;;22.20;3.22;;;;;;;5.22;100.00;98928.97;5021270;28;20041;-74
2024/03/29 04:12:50;;;;;;;21.95;3.75;;;;;;;5.14;100.00;98916.69;5038048;28;20427;-73
2024/03/29 04:15:16;;;;;;;24.77;3.80;;;;;;;5.36;100.00;98941.22;5039382;28;20025;-75
2024/03/29 04:17:42;;;;;;;23.63;3.35;;;;;;;5.40;100.00;98945.94;5040046;28;20041;-75
2024/03/29 04:20:07;;;;;;;24.52;3.47;;;;;;;5.41;100.00;98944.09;5039348;28;20040;-74
2024/03/29 04:22:33;;;;;;;21.33;2.83;;;;;;;5.47;100.00;98943.25;5039085;28;20057;-76
2024/03/29 04:24:58;;;;;;;25.10;3.70;;;;;;;5.35;100.00;98926.25;5022934;28;20042;-76
2024/03/29 04:27:25;;;;;;;24.95;3.20;;;;;;;5.55;100.00;98958.19;5046674;28;20068;-77
2024/03/29 04:29:52;;;;;;;23.60;2.83;;;;;;;5.58;100.00;98955.91;5045199;28;20041;-76
2024/03/29 04:32:17;;;;;;;27.73;3.22;;;;;;;5.53;100.00;98945.06;5064214;28;20043;-75
2024/03/29 04:34:45;;;;;;;22.35;3.10;;;;;;;5.60;100.00;98947.69;5046956;28;20064;-74
2024/03/29 04:37:11;;;;;;;20.58;2.88;;;;;;;5.58;100.00;98936.41;5046687;28;20037;-75
2024/03/29 04:39:36;;;;;;;29.23;3.70;;;;;;;5.61;100.00;98939.47;5045926;28;20075;-77
2024/03/29 04:42:02;;;;;;;21.02;2.70;;;;;;;5.71;100.00;98960.38;5045691;28;20071;-76
2024/03/29 04:44:28;;;;;;;16.42;2.85;;;;;;;5.76;100.00;98962.38;5029142;28;20503;-75
2024/03/29 04:46:54;;;;;;;20.63;3.10;;;;;;;5.67;100.00;98945.00;5045741;28;20033;-76
2024/03/29 04:49:33;;;;;;;24.48;2.97;;;;;;;5.80;100.00;98964.44;5044165;28;20365;-75
2024/03/29 04:51:59;;;;;;;20.58;2.90;;;;;;;5.74;100.00;98951.13;5062535;28;20040;-74
2024/03/29 04:54:25;;;;;;;17.05;2.80;;;;;;;5.86;100.00;98963.59;5046414;28;20040;-74
2024/03/29 04:56:50;;;;;;;27.58;4.25;;;;;;;5.87;100.00;98975.06;5064196;28;20029;-75
2024/03/29 04:59:17;;;;;;;22.40;3.22;;;;;;;5.83;100.00;98955.19;5045984;28;20412;-74
2024/03/29 05:01:44;;;;;;;19.80;2.60;;;;;;;5.84;100.00;98964.81;5046156;28;20091;-75
2024/03/29 05:04:10;;;;;;;22.15;2.97;;;;;;;5.80;100.00;98952.94;5061585;28;20059;-74
2024/03/29 05:06:35;;;;;;;21.08;3.47;;;;;;;5.94;100.00;98973.22;5044680;28;20071;-75
2024/03/29 05:09:01;;;;;;;17.13;2.35;;;;;;;5.46;100.00;98890.91;5074837;28;20032;-75
2024/03/29 05:11:26;;;;;;;22.58;3.03;;;;;;;5.97;100.00;98985.31;5063675;28;20055;-75
2024/03/29 05:13:52;;;;;;;20.23;3.08;;;;;;;5.96;100.00;98984.50;5081042;28;20411;-74
2024/03/29 05:16:17;;;;;;;22.65;2.90;;;;;;;5.83;100.00;98956.00;5068304;28;20119;-74
2024/03/29 05:18:43;;;;;;;28.02;3.08;;;;;;;5.79;100.00;98951.28;5069708;28;20041;-76
2024/03/29 05:21:09;;;;;;;23.90;3.10;;;;;;;6.02;100.00;98991.63;5070262;28;20044;-75
2024/03/29 05:23:34;;;;;;;21.52;3.53;;;;;;;6.02;100.00;98980.13;5068960;28;20032;-77
2024/03/29 05:26:00;;;;;;;16.60;3.33;;;;;;;5.92;100.00;98959.22;5084523;28;20067;-77
2024/03/29 05:28:26;;;;;;;22.13;3.13;;;;;;;6.06;100.00;98973.34;5075013;28;20033;-76
2024/03/29 05:30:51;;;;;;;22.25;2.97;;;;;;;5.98;100.00;98965.59;5076114;28;20025;-77
2024/03/29 05:33:16;;;;;;;22.40;2.75;;;;;;;6.02;100.00;98972.94;5093482;28;20049;-75
2024/03/29 05:35:42;;;;;;;20.80;3.72;;;;;;;6.14;100.00;98988.31;5073708;28;20074;-75
2024/03/29 05:38:08;;;;;;;23.65;2.88;;;;;;;6.09;100.00;98989.78;5088770;28;20036;-75
2024/03/29 05:40:33;;;;;;;21.77;3.00;;;;;;;6.19;100.00;98996.47;5093435;28;20064;-75
2024/03/29 05:42:58;;;;;;;21.90;3.20;;;;;;;6.23;100.00;98992.34;5054158;28;20032;-75
2024/03/29 05:45:31;;;;;;;20.60;2.50;;;;;;;6.21;100.00;98983.72;5066347;28;20107;-74
2024/03/29 05:47:58;;;;;;;17.73;3.10;;;;;;;6.38;100.00;99000.06;5063363;28;20036;-75
2024/03/29 05:50:24;;;;;;;31.10;4.07;;;;;;;6.46;100.00;99005.97;5082891;28;20036;-76
2024/03/29 05:52:51;;;;;;;18.08;2.80;;;;;;;6.50;100.00;99007.16;5073959;28;20150;-77
2024/03/29 05:55:17;;;;;;;24.90;4.10;;;;;;;6.50;100.00;99007.16;5083429;28;20037;-76
2024/03/29 05:57:44;;;;;;;27.35;4.07;;;;;;;6.52;100.00;99007.78;5048289;28;20036;-76
2024/03/29 06:00:12;;;;;;;23.88;3.50;;;;;;;6.51;100.00;99008.78;5064739;28;20562;-77
2024/03/29 06:02:38;;;;;;;18.77;4.00;;;;;;;6.54;100.00;99007.53;5082225;28;20155;-76
2024/03/29 06:05:04;;;;;;;23.02;3.90;;;;;;;6.55;100.00;99007.31;5082269;28;20490;-76
2024/03/29 06:07:32;;;;;;;35.80;4.15;;;;;;;6.57;100.00;99013.28;5082799;28;20059;-76
2024/03/29 06:09:59;;;;;;;27.30;4.50;;;;;;;6.64;100.00;99015.09;5048111;28;20127;-77
2024/03/29 06:12:27;;;;;;;27.73;4.80;;;;;;;6.66;100.00;99016.50;5067653;28;20056;-76
2024/03/29 06:17:37;;;;;;;25.48;4.53;;;;;;;6.30;100.00;98934.38;5051076;28;20089;-75
2024/03/29 06:20:03;;;;;;;23.33;4.28;;;;;;;6.82;100.00;99018.66;5066639;28;20037;-77
2024/03/29 06:22:32;;;;;;;22.20;5.43;;;;;;;6.90;100.00;99017.53;5045061;28;20040;-74
2024/03/29 06:25:04;;;;;;;26.05;5.13;;;;;;;6.91;100.00;99021.84;5037827;28;20056;-72
2024/03/29 06:27:33;;;;;;;27.17;5.68;;;;;;;6.95;100.00;99023.03;5044874;28;20041;-71
2024/03/29 06:30:00;;;;;;;28.42;6.45;;;;;;;6.95;100.00;99027.56;5022001;28;20117;-73
2024/03/29 06:32:25;;;;;;;26.65;6.53;;;;;;;6.93;100.00;99019.78;5020123;28;20049;-72
2024/03/29 06:34:51;;;;;;;27.27;7.13;;;;;;;7.01;100.00;99035.53;5035910;28;20191;-71
2024/03/29 06:37:16;;;;;;;25.48;7.30;;;;;;;7.01;100.00;99035.53;5035648;28;20122;-72
2024/03/29 06:39:43;;;;;;;30.27;8.48;;;;;;;7.03;100.00;99033.47;5036562;28;20037;-72
2024/03/29 06:42:09;;;;;;;31.17;9.15;;;;;;;7.01;100.00;99016.00;5053924;28;20094;-73
2024/03/29 06:44:37;;;;;;;29.45;10.70;;;;;;;6.97;100.00;99010.28;5054882;28;20032;-74
2024/03/29 06:47:03;;;;;;;41.53;12.23;;;;;;;7.16;100.00;99039.75;5036593;28;20041;-74
2024/03/29 06:49:29;;;;;;;32.95;12.18;;;;;;;7.15;100.00;99024.72;5036065;28;20040;-75
2024/03/29 06:51:55;;;;;;;32.58;12.82;;;;;;;7.14;100.00;99029.25;5020483;28;20045;-74
2024/03/29 06:54:26;;;;;;;31.40;12.95;;;;;;;7.26;100.00;99037.38;5054140;28;20507;-70
2024/03/29 06:56:52;;;;;;;33.85;15.80;;;;;;;7.25;100.00;99035.72;5034870;28;20055;-71
2024/03/29 06:59:18;;;;;;;36.00;15.27;;;;;;;7.30;100.00;99043.91;5054265;28;20112;-71
2024/03/29 07:01:43;;;;;;;38.17;14.60;;;;;;;7.35;100.00;99043.25;5053660;28;20064;-71
2024/03/29 07:04:08;;;;;;;33.40;15.85;;;;;;;7.39;100.00;99050.63;5036458;28;20442;-71
2024/03/29 07:06:38;;;;;;;29.35;14.27;;;;;;;7.44;100.00;99053.44;5036616;28;20045;-72
2024/03/29 07:09:03;;;;;;;31.08;15.27;;;;;;;6.97;100.00;98974.69;5021931;28;20040;-72
2024/03/29 07:11:29;;;;;;;27.33;15.63;;;;;;;7.50;100.00;99060.59;5037354;28;20140;-72
2024/03/29 07:13:55;;;;;;;32.30;15.48;;;;;;;7.49;100.00;99068.84;5019806;28;20045;-72
2024/03/29 07:16:20;;;;;;;26.23;15.40;;;;;;;7.49;100.00;99079.56;5021215;28;20132;-70
2024/03/29 07:18:46;;;;;;;28.33;15.48;;;;;;;7.41;100.00;99064.59;5055192;28;20059;-72
2024/03/29 07:21:11;;;;;;;30.80;16.33;;;;;;;7.56;100.00;99090.19;5036776;28;20033;-70
2024/03/29 07:23:36;;;;;;;28.15;16.13;;;;;;;7.58;100.00;99085.41;5054165;28;20535;-71
2024/03/29 07:26:04;;;;;;;30.15;16.40;;;;;;;7.62;100.00;99095.47;5054836;28;20041;-72
2024/03/29 07:28:30;;;;;;;26.48;16.23;;;;;;;7.73;100.00;99092.06;5053949;28;20383;-71
2024/03/29 07:30:56;;;;;;;31.20;17.58;;;;;;;7.79;100.00;99078.84;5071689;28;20043;-71
2024/03/29 07:33:26;;;;;;;26.38;16.88;;;;;;;7.84;100.00;99085.13;5054042;28;20115;-71
2024/03/29 07:35:55;;;;;;;27.92;17.42;;;;;;;7.67;100.00;99060.00;5072045;28;20036;-71
2024/03/29 07:38:24;;;;;;;32.75;17.60;;;;;;;7.86;100.00;99104.47;5071934;28;20048;-70
2024/03/29 07:40:52;;;;;;;26.58;17.83;;;;;;;7.77;100.00;99081.72;5054447;28;20422;-70
2024/03/29 07:43:18;;;;;;;29.17;17.05;;;;;;;7.92;100.00;99106.28;5054262;28;20075;-71
2024/03/29 07:45:44;;;;;;;26.75;17.50;;;;;;;7.77;100.00;99084.38;5072410;28;20036;-71
2024/03/29 07:48:13;;;;;;;29.27;17.02;;;;;;;8.04;100.00;99116.22;5072313;28;20041;-70
2024/03/29 07:50:42;;;;;;;26.13;16.98;;;;;;;8.07;100.00;99118.47;5072645;28;20037;-69
2024/03/29 07:53:08;;;;;;;27.80;17.88;;;;;;;8.16;100.00;99117.94;5055048;28;20403;-70
2024/03/29 07:55:35;;;;;;;22.48;16.23;;;;;;;8.22;100.00;99121.59;5072477;28;20036;-70
2024/03/29 07:58:01;;;;;;;26.15;17.15;;;;;;;8.15;100.00;99094.06;5072228;28;20043;-70
2024/03/29 08:00:26;;;;;;;27.42;16.67;;;;;;;8.33;100.00;99128.84;5071749;28;20219;-71
2024/03/29 08:02:53;;;;;;;25.70;16.05;;;;;;;8.46;100.00;99128.72;5052894;28;20138;-71
2024/03/29 08:05:21;;;;;;;26.40;16.02;;;;;;;8.52;100.00;99128.88;5072794;28;20049;-70
2024/03/29 08:07:47;;;;;;;25.05;15.88;;;;;;;8.52;100.00;99135.03;5073050;28;20407;-70
2024/03/29 08:10:12;;;;;;;24.77;15.23;;;;;;;8.54;100.00;99140.16;5054688;28;20043;-71
2024/03/29 08:12:38;;;;;;;23.13;14.10;;;;;;;8.48;100.00;99109.75;5054969;28;20086;-70
2024/03/29 08:15:04;;;;;;;22.55;14.13;;;;;;;8.73;100.00;99131.03;5037707;28;20140;-71
2024/03/29 08:17:30;;;;;;;18.85;13.40;;;;;;;8.80;100.00;99145.16;5037679;28;20036;-70
2024/03/29 08:19:55;;;;;;;22.67;14.55;;;;;;;8.83;100.00;99131.28;5072060;28;20042;-70
2024/03/29 08:22:21;;;;;;;21.92;13.23;;;;;;;8.64;100.00;99108.25;5071801;28;20040;-71
2024/03/29 08:24:46;;;;;;;23.38;13.23;;;;;;;8.71;100.00;99119.75;5036576;28;20116;-71
2024/03/29 08:27:11;;;;;;;22.38;12.45;;;;;;;9.04;100.00;99140.69;5071306;28;20060;-70
2024/03/29 08:29:37;;;;;;;21.63;12.85;;;;;;;9.01;100.00;99116.19;5071852;28;20041;-71
2024/03/29 08:32:03;;;;;;;19.17;12.18;;;;;;;9.28;100.00;99148.78;5053835;28;20056;-71
2024/03/29 08:34:34;;;;;;;21.73;12.10;;;;;;;9.28;100.00;99148.78;5071632;28;20067;-70
2024/03/29 08:37:03;;;;;;;20.45;12.23;;;;;;;9.31;100.00;99146.47;5072857;28;20116;-70
2024/03/29 08:39:30;;;;;;;16.92;10.60;;;;;;;9.40;100.00;99142.41;5071529;28;20094;-71
2024/03/29 08:41:55;;;;;;;19.35;10.80;;;;;;;9.58;100.00;99151.38;5053437;28;20036;-70
2024/03/29 08:44:21;;;;;;;21.77;11.57;;;;;;;9.59;100.00;99143.09;5052977;28;20475;-70
2024/03/29 08:46:46;;;;;;;23.38;12.13;;;;;;;9.63;100.00;99159.53;5071016;28;20134;-71
2024/03/29 08:49:11;;;;;;;17.25;9.77;;;;;;;9.45;100.00;99168.53;5053150;28;20036;-71
2024/03/29 08:51:37;;;;;;;16.05;9.82;;;;;;;9.35;100.00;99169.09;5070412;28;20484;-70
2024/03/29 08:54:05;;;;;;;18.40;10.07;;;;;;;9.26;100.00;99138.28;5052335;28;20086;-72
2024/03/29 08:56:31;;;;;;;15.10;8.70;;;;;;;9.52;100.00;99158.50;5052896;28;20434;-70
2024/03/29 08:59:00;;;;;;;16.85;9.02;;;;;;;9.59;100.00;99178.00;5035691;28;20507;-70
2024/03/29 09:01:26;;;;;;;16.90;8.82;;;;;;;9.53;100.00;99168.19;5053154;28;20495;-71
2024/03/29 09:03:52;;;;;;;15.60;9.10;;;;;;;9.59;100.00;99175.31;5052290;28;20086;-71
2024/03/29 09:06:17;;;;;;;17.75;8.95;;;;;;;9.64;100.00;99180.00;5052191;28;20044;-71
2024/03/29 09:08:43;;;;;;;14.82;8.07;;;;;;;9.74;100.00;99171.38;5068985;28;20052;-71
2024/03/29 09:11:10;;;;;;;14.15;8.15;;;;;;;9.76;100.00;99185.38;5070312;28;20041;-71
2024/03/29 09:13:35;;;;;;;13.55;8.35;;;;;;;9.77;100.00;99189.72;5071534;28;20143;-71
2024/03/29 09:16:01;;;;;;;13.05;7.50;;;;;;;9.68;100.00;99189.22;5074333;28;20138;-71
2024/03/29 09:18:27;;;;;;;13.48;7.57;;;;;;;9.76;100.00;99206.84;5039781;28;20374;-71
2024/03/29 09:20:57;;;;;;;17.63;8.73;;;;;;;9.79;100.00;99196.47;5056340;28;20406;-70
2024/03/29 09:23:25;;;;;;;22.42;8.68;;;;;;;9.87;100.00;99192.63;5056462;28;20044;-71
2024/03/29 09:25:50;;;;;;;18.27;9.32;;;;;;;9.70;100.00;99154.06;5056387;28;20059;-71
2024/03/29 09:28:16;;;;;;;18.23;7.90;;;;;;;9.87;100.00;99193.44;5073662;28;20507;-71
2024/03/29 09:30:41;;;;;;;15.55;8.50;;;;;;;9.91;100.00;99199.16;5057196;28;20040;-72
2024/03/29 09:33:09;;;;;;;18.45;7.75;;;;;;;9.78;100.00;99186.78;5074900;28;20170;-71
2024/03/29 09:35:36;;;;;;;13.45;7.50;;;;;;;9.85;100.00;99200.91;5075083;28;20036;-72
2024/03/29 09:38:03;;;;;;;15.82;7.95;;;;;;;9.82;100.00;99198.69;5042102;28;20036;-72
2024/03/29 09:40:29;;;;;;;17.02;7.32;;;;;;;9.71;100.00;99193.31;5076388;28;20036;-71
2024/03/29 09:43:02;;;;;;;13.23;6.68;;;;;;;9.69;100.00;99188.16;5076516;28;20055;-73
2024/03/29 09:45:32;;;;;;;12.52;6.53;;;;;;;9.51;100.00;99175.66;5077269;28;20468;-74
2024/03/29 09:48:02;;;;;;;13.50;6.70;;;;;;;9.70;100.00;99208.63;5060518;28;20419;-74
2024/03/29 09:50:29;;;;;;;14.15;5.85;;;;;;;9.78;100.00;99204.75;5060152;28;20067;-72
2024/03/29 09:52:55;;;;;;;14.30;6.10;;;;;;;9.68;100.00;99191.91;5073677;28;20491;-73
2024/03/29 09:55:22;;;;;;;15.27;6.28;;;;;;;9.61;100.00;99183.16;5073458;28;20048;-72
2024/03/29 09:57:48;;;;;;;15.80;6.18;;;;;;;9.60;100.00;99187.72;5075675;28;20032;-72
2024/03/29 10:00:13;;;;;;;14.32;6.00;;;;;;;9.79;100.00;99212.56;5021288;28;20041;-72
2024/03/29 10:02:40;;;;;;;11.75;5.88;;;;;;;9.88;100.00;99218.44;5056911;28;20036;-72
2024/03/29 10:05:08;;;;;;;12.98;5.82;;;;;;;9.76;100.00;99196.91;5074323;28;20063;-71
2024/03/29 10:07:36;;;;;;;13.32;5.65;;;;;;;9.69;100.00;99180.09;5055121;28;20029;-71
2024/03/29 10:10:02;;;;;;;12.70;5.93;;;;;;;9.97;100.00;99210.84;5055638;28;20043;-71
2024/03/29 10:12:29;;;;;;;13.15;5.40;;;;;;;10.03;100.00;99215.25;5056183;28;20040;-71
2024/03/29 10:15:04;;;;;;;13.75;5.78;;;;;;;10.05;100.00;99216.66;5072621;28;20589;-72
2024/03/29 10:17:31;;;;;;;15.80;5.63;;;;;;;10.21;100.00;99228.56;5072929;28;20043;-71
2024/03/29 10:20:03;;;;;;;12.52;5.18;;;;;;;10.12;100.00;99229.97;5073544;28;20028;-71
2024/03/29 10:22:28;;;;;;;12.18;5.05;;;;;;;10.11;100.00;99225.66;5073296;28;20064;-71
2024/03/29 10:24:54;;;;;;;13.60;4.82;;;;;;;10.04;100.00;99227.66;5072489;28;20064;-71
2024/03/29 10:27:19;;;;;;;13.90;5.07;;;;;;;9.94;100.00;99227.44;5072431;28;20070;-71
2024/03/29 10:29:45;;;;;;;10.80;4.50;;;;;;;9.95;100.00;99245.19;5075219;28;20034;-73
2024/03/29 10:32:10;;;;;;;10.52;4.50;;;;;;;9.83;100.00;99242.47;5056957;28;20036;-72
2024/03/29 10:34:36;;;;;;;13.35;4.68;;;;;;;9.71;100.00;99236.28;5054816;28;20037;-73
2024/03/29 10:37:02;;;;;;;12.65;4.68;;;;;;;9.56;100.00;99224.09;5072746;28;20566;-72
2024/03/29 10:39:30;;;;;;;16.55;4.88;;;;;;;9.59;100.00;99247.81;5073097;28;20037;-72
2024/03/29 10:41:56;;;;;;;16.40;5.00;;;;;;;9.45;100.00;99248.25;5072456;28;20119;-71
2024/03/29 10:44:23;;;;;;;14.80;4.45;;;;;;;9.36;100.00;99247.75;5054928;28;20091;-72
2024/03/29 10:46:50;;;;;;;13.77;4.55;;;;;;;9.37;100.00;99257.44;5038191;28;20163;-72
2024/03/29 10:49:17;;;;;;;15.70;5.68;;;;;;;9.37;100.00;99262.81;5056104;28;20033;-73
2024/03/29 10:51:43;;;;;;;11.63;4.38;;;;;;;9.16;100.00;99240.81;5074445;28;20029;-73
2024/03/29 10:54:12;;;;;;;10.52;4.47;;;;;;;9.27;100.00;99257.19;5074664;28;20391;-73
2024/03/29 10:56:42;;;;;;;16.27;4.10;;;;;;;9.25;100.00;99257.44;5057613;28;20032;-73
2024/03/29 10:59:46;;;;;;;12.35;4.28;;;;;;;9.23;100.00;99261.38;5056447;28;20031;-73
2024/03/29 11:02:42;;;;;;;15.20;4.35;;;;;;;9.32;100.00;99263.50;5050579;28;20036;-73
2024/03/29 11:05:12;;;;;;;11.45;4.20;;;;;;;9.40;100.00;99263.19;5018969;28;20029;-74
2024/03/29 11:07:41;;;;;;;16.83;4.20;;;;;;;9.37;100.00;99247.56;5056527;28;20028;-73
2024/03/29 11:10:10;;;;;;;12.65;4.22;;;;;;;9.36;100.00;99229.78;5057165;28;20043;-73
2024/03/29 11:12:46;;;;;;;15.10;4.55;;;;;;;9.55;100.00;99268.13;5056485;28;20045;-72
2024/03/29 11:15:21;;;;;;;10.60;3.78;;;;;;;9.54;100.00;99265.69;5048676;28;20049;-73
2024/03/29 11:17:48;;;;;;;10.90;3.78;;;;;;;9.38;100.00;99232.25;5036457;28;20041;-72
2024/03/29 11:20:18;;;;;;;14.23;4.32;;;;;;;9.57;100.00;99268.72;5034377;28;20044;-72
2024/03/29 11:22:43;;;;;;;13.20;4.10;;;;;;;9.54;100.00;99268.38;5030227;28;20042;-73
2024/03/29 11:25:13;;;;;;;11.65;3.95;;;;;;;9.54;100.00;99279.13;5017871;28;20071;-72